JQ2GLP-13 Weather Reports


time (UTC)temp
F
wind
direction
speed
knots
gust
knots
rain 1hr
in
rain 24hr
in
rain mn
in
humidity
%
barometer
mb
20260903025606 82 0 0.0 0.0 0.00 0.00 0.00 75 1005.7
20260903015604 82 0 0.0 0.0 0.00 0.00 0.00 75 1006.2
20260903012604 82 0 0.0 0.0 0.00 0.00 0.00 75 1006.1
20260903005603 82 0 0.0 0.0 0.00 0.00 0.00 75 1006.6
20260903002603 82 0 0.0 0.0 0.00 0.00 0.00 75 1006.8
20260902232603 79 0 0.0 0.0 0.00 0.00 0.00 75 1006.8
20260902225604 79 65 0.0 0.0 0.00 0.00 0.00 75 1006.9
20260902222603 79 65 0.0 0.0 0.00 0.00 0.00 77 1006.7
20260902215604 78 52 0.0 0.0 0.00 0.00 0.00 80 1006.2
20260902212603 77 53 0.0 0.0 0.00 0.00 0.00 81 1006.2
20260902205603 77 53 0.0 0.0 0.00 0.00 0.00 82 1006.3
20260902202604 77 53 0.0 0.0 0.00 0.00 0.00 81 1006.2
20260902195605 77 48 0.0 0.0 0.00 0.00 0.00 80 1006.2
20260902192604 77 48 0.0 0.0 0.00 0.00 0.00 80 1006.3
20260902185603 77 61 0.0 0.0 0.00 0.00 0.00 81 1006.5
20260902175604 78 63 0.0 0.0 0.00 0.00 0.00 80 1006.7
20260902172605 78 63 0.0 0.0 0.00 0.00 0.00 79 1007.1
20260902165604 79 21 0.0 0.0 0.00 0.00 0.00 79 1007.4
20260902155605 79 21 0.0 0.0 0.00 0.00 0.00 78 1007.5
20260902152605 79 73 0.0 0.0 0.00 0.00 0.00 77 1007.7
20260902145604 80 100 0.0 0.0 0.00 0.00 0.00 76 1007.6
20260902135605 79 186 0.0 0.0 0.00 0.00 0.00 77 1008.1
20260902125605 80 188 0.0 0.0 0.00 0.00 0.00 77 1008.1
20260902122604 80 188 0.0 0.0 0.00 0.00 0.00 75 1008.2
20260902115605 80 188 0.0 0.0 0.00 0.00 0.00 75 1008.4
20260902105605 81 199 0.0 0.0 0.00 0.00 0.00 72 1008.0
20260902102605 81 199 0.0 0.0 0.00 0.00 0.00 71 1007.8
20260902095605 82 199 0.0 0.0 0.00 0.00 0.00 69 1007.6
20260902085605 83 191 0.9 2.6 0.00 0.00 0.00 66 1007.7
20260902082606 84 205 0.0 0.0 0.00 0.00 0.00 64 1007.7
20260902075606 84 148 1.7 2.6 0.00 0.00 0.00 62 1007.6
20260902065606 86 179 2.6 5.2 0.00 0.00 0.00 60 1007.4
20260902045607 89 218 2.6 2.6 0.00 0.00 0.00 54 1007.2